Terminal Aerodrome Forecast
Issued by NWS

Home | Current Version | Previous Version | Graphics & Text | Print | Product List | Glossary On
Versions: 1 2 3 4 5 6 7 8 9 10 11 12 13
000
FTUS45 KGGW 211100
TAFSDY
TAF
KSDY 211127Z 2112/2212 VRB05KT P6SM SCT010 SCT200
      TEMPO 2112/2115 BKN010
     FM211700 26008KT P6SM SCT200
     FM220400 11007KT P6SM SCT150
      AMD LTD TO CLD VIS AND WIND=

USA.gov is the U.S. government's official web portal to all federal, state and local government web resources and services.